sensor_id;sensor_type;location;lat;lon;timestamp;temperature;humidity
36322;DHT22;23564;48.290;11.460;2022-12-18T00:01:49;-4.50;99.90
36322;DHT22;23564;48.290;11.460;2022-12-18T00:04:20;-4.50;99.90
36322;DHT22;23564;48.290;11.460;2022-12-18T00:06:45;-4.50;99.90
36322;DHT22;23564;48.290;11.460;2022-12-18T00:09:11;-4.60;99.90
36322;DHT22;23564;48.290;11.460;2022-12-18T00:11:37;-4.60;99.90
36322;DHT22;23564;48.290;11.460;2022-12-18T00:14:02;-4.70;99.90
36322;DHT22;23564;48.290;11.460;2022-12-18T00:16:29;-4.70;99.90
36322;DHT22;23564;48.290;11.460;2022-12-18T00:18:59;-4.70;99.90
36322;DHT22;23564;48.290;11.460;2022-12-18T00:21:25;-4.70;99.90
36322;DHT22;23564;48.290;11.460;2022-12-18T00:23:51;-4.70;99.90
36322;DHT22;23564;48.290;11.460;2022-12-18T00:26:20;-4.70;99.90
36322;DHT22;23564;48.290;11.460;2022-12-18T00:28:46;-4.70;99.90
36322;DHT22;23564;48.290;11.460;2022-12-18T00:31:15;-4.70;99.90
36322;DHT22;23564;48.290;11.460;2022-12-18T00:33:41;-4.70;99.90
36322;DHT22;23564;48.290;11.460;2022-12-18T00:36:18;-4.60;99.90
36322;DHT22;23564;48.290;11.460;2022-12-18T00:38:45;-4.60;99.90
36322;DHT22;23564;48.290;11.460;2022-12-18T00:41:12;-4.50;99.90
36322;DHT22;23564;48.290;11.460;2022-12-18T00:43:39;-4.50;99.90
36322;DHT22;23564;48.290;11.460;2022-12-18T00:46:05;-4.50;99.90
36322;DHT22;23564;48.290;11.460;2022-12-18T00:48:31;-4.50;99.90
36322;DHT22;23564;48.290;11.460;2022-12-18T00:50:57;-4.60;99.90
36322;DHT22;23564;48.290;11.460;2022-12-18T00:53:22;-4.60;99.90
36322;DHT22;23564;48.290;11.460;2022-12-18T00:55:48;-4.60;99.90
36322;DHT22;23564;48.290;11.460;2022-12-18T00:58:15;-4.50;99.90
36322;DHT22;23564;48.290;11.460;2022-12-18T01:00:42;-4.60;99.90
36322;DHT22;23564;48.290;11.460;2022-12-18T01:03:09;-4.50;99.90
36322;DHT22;23564;48.290;11.460;2022-12-18T01:05:39;-4.50;99.90
36322;DHT22;23564;48.290;11.460;2022-12-18T01:08:05;-4.50;99.90
36322;DHT22;23564;48.290;11.460;2022-12-18T01:10:31;-4.40;99.90
36322;DHT22;23564;48.290;11.460;2022-12-18T01:12:57;-4.30;99.90
36322;DHT22;23564;48.290;11.460;2022-12-18T01:15:22;-4.30;99.90
36322;DHT22;23564;48.290;11.460;2022-12-18T01:17:48;-4.30;99.90
36322;DHT22;23564;48.290;11.460;2022-12-18T01:20:13;-4.30;99.90
36322;DHT22;23564;48.290;11.460;2022-12-18T01:22:39;-4.30;99.90
36322;DHT22;23564;48.290;11.460;2022-12-18T01:25:05;-4.30;99.90
36322;DHT22;23564;48.290;11.460;2022-12-18T01:27:32;-4.30;99.90
36322;DHT22;23564;48.290;11.460;2022-12-18T01:29:58;-4.20;99.90
36322;DHT22;23564;48.290;11.460;2022-12-18T01:32:23;-4.20;99.90
36322;DHT22;23564;48.290;11.460;2022-12-18T01:34:49;-4.20;99.90
36322;DHT22;23564;48.290;11.460;2022-12-18T01:37:14;-4.10;99.90
36322;DHT22;23564;48.290;11.460;2022-12-18T01:39:40;-4.20;99.90
36322;DHT22;23564;48.290;11.460;2022-12-18T01:42:11;-4.20;99.90
36322;DHT22;23564;48.290;11.460;2022-12-18T01:47:39;-4.20;99.90
36322;DHT22;23564;48.290;11.460;2022-12-18T01:50:25;-4.20;99.90
36322;DHT22;23564;48.290;11.460;2022-12-18T01:52:59;-4.20;99.90
36322;DHT22;23564;48.290;11.460;2022-12-18T01:55:32;-4.20;99.90
36322;DHT22;23564;48.290;11.460;2022-12-18T01:58:00;-4.20;99.90
36322;DHT22;23564;48.290;11.460;2022-12-18T02:00:26;-4.20;99.90
36322;DHT22;23564;48.290;11.460;2022-12-18T02:02:53;-4.20;99.90
36322;DHT22;23564;48.290;11.460;2022-12-18T02:05:42;-4.20;99.90
36322;DHT22;23564;48.290;11.460;2022-12-18T02:08:16;-4.20;99.90
36322;DHT22;23564;48.290;11.460;2022-12-18T02:11:07;-4.20;99.90
36322;DHT22;23564;48.290;11.460;2022-12-18T02:13:39;-4.30;99.90
36322;DHT22;23564;48.290;11.460;2022-12-18T02:18:53;-4.40;99.90
36322;DHT22;23564;48.290;11.460;2022-12-18T02:21:34;-4.40;99.90
36322;DHT22;23564;48.290;11.460;2022-12-18T02:24:11;-4.30;99.90
36322;DHT22;23564;48.290;11.460;2022-12-18T02:26:49;-4.30;99.90
36322;DHT22;23564;48.290;11.460;2022-12-18T02:29:40;-4.30;99.90
36322;DHT22;23564;48.290;11.460;2022-12-18T02:32:14;-4.30;99.90
36322;DHT22;23564;48.290;11.460;2022-12-18T02:34:41;-4.30;99.90
36322;DHT22;23564;48.290;11.460;2022-12-18T02:37:11;-4.30;99.90
36322;DHT22;23564;48.290;11.460;2022-12-18T02:39:41;-4.30;99.90
36322;DHT22;23564;48.290;11.460;2022-12-18T02:42:07;-4.30;99.90
36322;DHT22;23564;48.290;11.460;2022-12-18T02:44:34;-4.30;99.90
36322;DHT22;23564;48.290;11.460;2022-12-18T02:47:01;-4.30;99.90
36322;DHT22;23564;48.290;11.460;2022-12-18T02:57:55;-4.40;99.90
36322;DHT22;23564;48.290;11.460;2022-12-18T03:00:24;-4.40;99.90
36322;DHT22;23564;48.290;11.460;2022-12-18T03:02:56;-4.30;99.90
36322;DHT22;23564;48.290;11.460;2022-12-18T03:05:27;-4.40;99.90
36322;DHT22;23564;48.290;11.460;2022-12-18T03:08:08;-4.30;99.90
36322;DHT22;23564;48.290;11.460;2022-12-18T03:10:40;-4.30;99.90
36322;DHT22;23564;48.290;11.460;2022-12-18T03:13:10;-4.30;99.90
36322;DHT22;23564;48.290;11.460;2022-12-18T03:15:57;-4.30;99.90
36322;DHT22;23564;48.290;11.460;2022-12-18T03:18:48;-4.30;99.90
36322;DHT22;23564;48.290;11.460;2022-12-18T03:21:18;-4.30;99.90
36322;DHT22;23564;48.290;11.460;2022-12-18T03:23:47;-4.40;99.90
36322;DHT22;23564;48.290;11.460;2022-12-18T03:26:17;-4.40;99.90
36322;DHT22;23564;48.290;11.460;2022-12-18T03:28:49;-4.40;99.90
36322;DHT22;23564;48.290;11.460;2022-12-18T03:31:17;-4.30;99.90
36322;DHT22;23564;48.290;11.460;2022-12-18T03:33:55;-4.40;99.90
36322;DHT22;23564;48.290;11.460;2022-12-18T03:36:22;-4.40;99.90
36322;DHT22;23564;48.290;11.460;2022-12-18T03:38:49;-4.40;99.90
36322;DHT22;23564;48.290;11.460;2022-12-18T03:44:32;-4.30;99.90
36322;DHT22;23564;48.290;11.460;2022-12-18T03:47:12;-4.40;99.90
36322;DHT22;23564;48.290;11.460;2022-12-18T03:50:08;-4.40;99.90
36322;DHT22;23564;48.290;11.460;2022-12-18T03:52:59;-4.30;99.90
36322;DHT22;23564;48.290;11.460;2022-12-18T03:55:27;-4.30;99.90
36322;DHT22;23564;48.290;11.460;2022-12-18T03:57:55;-4.40;99.90
36322;DHT22;23564;48.290;11.460;2022-12-18T04:00:21;-4.40;99.90
36322;DHT22;23564;48.290;11.460;2022-12-18T04:02:52;-4.40;99.90
36322;DHT22;23564;48.290;11.460;2022-12-18T04:05:19;-4.40;99.90
36322;DHT22;23564;48.290;11.460;2022-12-18T04:07:47;-4.40;99.90
36322;DHT22;23564;48.290;11.460;2022-12-18T04:10:14;-4.40;1.00
36322;DHT22;23564;48.290;11.460;2022-12-18T04:12:41;-4.40;1.00
36322;DHT22;23564;48.290;11.460;2022-12-18T04:15:08;-4.40;1.00
36322;DHT22;23564;48.290;11.460;2022-12-18T04:17:34;-4.40;1.00
36322;DHT22;23564;48.290;11.460;2022-12-18T04:19:59;-4.30;1.00
36322;DHT22;23564;48.290;11.460;2022-12-18T04:22:25;-4.30;99.90
36322;DHT22;23564;48.290;11.460;2022-12-18T04:24:51;-4.30;99.90
36322;DHT22;23564;48.290;11.460;2022-12-18T04:27:16;-4.30;99.90
36322;DHT22;23564;48.290;11.460;2022-12-18T04:29:42;-4.20;1.00
36322;DHT22;23564;48.290;11.460;2022-12-18T04:32:08;-4.20;99.90
36322;DHT22;23564;48.290;11.460;2022-12-18T04:34:34;-4.20;99.90
36322;DHT22;23564;48.290;11.460;2022-12-18T04:36:59;-4.20;99.90
36322;DHT22;23564;48.290;11.460;2022-12-18T04:39:25;-4.20;99.90
36322;DHT22;23564;48.290;11.460;2022-12-18T04:41:50;-4.20;99.90
36322;DHT22;23564;48.290;11.460;2022-12-18T04:44:16;-4.20;99.90
36322;DHT22;23564;48.290;11.460;2022-12-18T04:46:41;-4.20;99.90
36322;DHT22;23564;48.290;11.460;2022-12-18T04:49:07;-4.20;99.90
36322;DHT22;23564;48.290;11.460;2022-12-18T04:51:33;-4.20;1.00
36322;DHT22;23564;48.290;11.460;2022-12-18T04:53:58;-4.10;99.90
36322;DHT22;23564;48.290;11.460;2022-12-18T04:56:24;-4.10;99.90
36322;DHT22;23564;48.290;11.460;2022-12-18T04:58:49;-4.00;99.90
36322;DHT22;23564;48.290;11.460;2022-12-18T05:01:17;-4.00;99.90
36322;DHT22;23564;48.290;11.460;2022-12-18T05:03:43;-4.00;99.90
36322;DHT22;23564;48.290;11.460;2022-12-18T05:06:09;-4.00;99.90
36322;DHT22;23564;48.290;11.460;2022-12-18T05:08:35;-4.00;99.90
36322;DHT22;23564;48.290;11.460;2022-12-18T05:11:01;-4.00;99.90
36322;DHT22;23564;48.290;11.460;2022-12-18T05:13:28;-4.00;99.90
36322;DHT22;23564;48.290;11.460;2022-12-18T05:15:54;-3.90;99.90
36322;DHT22;23564;48.290;11.460;2022-12-18T05:18:21;-3.90;99.90
36322;DHT22;23564;48.290;11.460;2022-12-18T05:20:46;-3.90;99.90
36322;DHT22;23564;48.290;11.460;2022-12-18T05:23:12;-3.90;99.90
36322;DHT22;23564;48.290;11.460;2022-12-18T05:25:38;-3.90;99.90
36322;DHT22;23564;48.290;11.460;2022-12-18T05:28:03;-3.80;99.90
36322;DHT22;23564;48.290;11.460;2022-12-18T05:30:29;-3.80;99.90
36322;DHT22;23564;48.290;11.460;2022-12-18T05:32:55;-3.80;99.90
36322;DHT22;23564;48.290;11.460;2022-12-18T05:35:20;-3.80;99.90
36322;DHT22;23564;48.290;11.460;2022-12-18T05:37:46;-3.80;99.90
36322;DHT22;23564;48.290;11.460;2022-12-18T05:40:12;-3.80;99.90
36322;DHT22;23564;48.290;11.460;2022-12-18T05:42:37;-3.80;99.90
36322;DHT22;23564;48.290;11.460;2022-12-18T05:45:03;-3.80;99.90
36322;DHT22;23564;48.290;11.460;2022-12-18T05:47:29;-3.80;99.90
36322;DHT22;23564;48.290;11.460;2022-12-18T05:49:55;-3.70;99.90
36322;DHT22;23564;48.290;11.460;2022-12-18T05:52:20;-3.70;99.90
36322;DHT22;23564;48.290;11.460;2022-12-18T05:54:46;-3.70;99.90
36322;DHT22;23564;48.290;11.460;2022-12-18T05:57:12;-3.70;99.90
36322;DHT22;23564;48.290;11.460;2022-12-18T05:59:37;-3.70;99.90
36322;DHT22;23564;48.290;11.460;2022-12-18T06:02:03;-3.70;99.90
36322;DHT22;23564;48.290;11.460;2022-12-18T06:04:30;-3.70;99.90
36322;DHT22;23564;48.290;11.460;2022-12-18T06:06:55;-3.70;99.90
36322;DHT22;23564;48.290;11.460;2022-12-18T06:09:21;-3.70;99.90
36322;DHT22;23564;48.290;11.460;2022-12-18T06:11:46;-3.70;99.90
36322;DHT22;23564;48.290;11.460;2022-12-18T06:14:12;-3.70;99.90
36322;DHT22;23564;48.290;11.460;2022-12-18T06:16:38;-3.70;99.90
36322;DHT22;23564;48.290;11.460;2022-12-18T06:19:05;-3.80;99.90
36322;DHT22;23564;48.290;11.460;2022-12-18T06:21:31;-3.80;99.90
36322;DHT22;23564;48.290;11.460;2022-12-18T06:23:57;-3.80;99.90
36322;DHT22;23564;48.290;11.460;2022-12-18T06:26:23;-3.90;99.90
36322;DHT22;23564;48.290;11.460;2022-12-18T06:28:49;-3.80;99.90
36322;DHT22;23564;48.290;11.460;2022-12-18T06:31:14;-3.90;99.90
36322;DHT22;23564;48.290;11.460;2022-12-18T06:33:40;-3.90;99.90
36322;DHT22;23564;48.290;11.460;2022-12-18T06:36:08;-3.90;99.90
36322;DHT22;23564;48.290;11.460;2022-12-18T06:38:36;-3.80;99.90
36322;DHT22;23564;48.290;11.460;2022-12-18T06:41:09;-3.80;99.90
36322;DHT22;23564;48.290;11.460;2022-12-18T06:43:35;-3.70;99.90
36322;DHT22;23564;48.290;11.460;2022-12-18T06:46:02;-3.70;99.90
36322;DHT22;23564;48.290;11.460;2022-12-18T06:48:28;-3.80;99.90
36322;DHT22;23564;48.290;11.460;2022-12-18T06:50:54;-3.80;99.90
36322;DHT22;23564;48.290;11.460;2022-12-18T06:53:20;-3.80;99.90
36322;DHT22;23564;48.290;11.460;2022-12-18T06:55:45;-3.90;99.90
36322;DHT22;23564;48.290;11.460;2022-12-18T06:58:11;-4.00;99.90
36322;DHT22;23564;48.290;11.460;2022-12-18T07:00:37;-4.00;99.90
36322;DHT22;23564;48.290;11.460;2022-12-18T07:03:02;-4.00;99.90
36322;DHT22;23564;48.290;11.460;2022-12-18T07:05:28;-4.00;99.90
36322;DHT22;23564;48.290;11.460;2022-12-18T07:07:53;-4.00;99.90
36322;DHT22;23564;48.290;11.460;2022-12-18T07:10:19;-4.00;99.90
36322;DHT22;23564;48.290;11.460;2022-12-18T07:12:45;-4.00;99.90
36322;DHT22;23564;48.290;11.460;2022-12-18T07:15:11;-4.00;99.90
36322;DHT22;23564;48.290;11.460;2022-12-18T07:17:36;-4.00;99.90
36322;DHT22;23564;48.290;11.460;2022-12-18T07:20:02;-3.90;99.90
36322;DHT22;23564;48.290;11.460;2022-12-18T07:22:28;-3.90;99.90
36322;DHT22;23564;48.290;11.460;2022-12-18T07:24:53;-3.90;99.90
36322;DHT22;23564;48.290;11.460;2022-12-18T07:27:19;-3.90;99.90
36322;DHT22;23564;48.290;11.460;2022-12-18T07:29:44;-3.80;99.90
36322;DHT22;23564;48.290;11.460;2022-12-18T07:32:10;-3.80;99.90
36322;DHT22;23564;48.290;11.460;2022-12-18T07:34:35;-3.70;99.90
36322;DHT22;23564;48.290;11.460;2022-12-18T07:37:01;-3.80;99.90
36322;DHT22;23564;48.290;11.460;2022-12-18T07:39:27;-3.80;99.90
36322;DHT22;23564;48.290;11.460;2022-12-18T07:41:52;-3.70;99.90
36322;DHT22;23564;48.290;11.460;2022-12-18T07:44:37;-3.70;99.90
36322;DHT22;23564;48.290;11.460;2022-12-18T07:47:03;-3.70;99.90
36322;DHT22;23564;48.290;11.460;2022-12-18T07:49:28;-3.70;99.90
36322;DHT22;23564;48.290;11.460;2022-12-18T07:51:57;-3.60;99.90
36322;DHT22;23564;48.290;11.460;2022-12-18T07:54:24;-3.60;99.90
36322;DHT22;23564;48.290;11.460;2022-12-18T07:56:50;-3.50;99.90
36322;DHT22;23564;48.290;11.460;2022-12-18T07:59:16;-3.50;99.90
36322;DHT22;23564;48.290;11.460;2022-12-18T08:01:42;-3.50;99.90
36322;DHT22;23564;48.290;11.460;2022-12-18T08:04:07;-3.50;99.90
36322;DHT22;23564;48.290;11.460;2022-12-18T08:06:33;-3.50;99.90
36322;DHT22;23564;48.290;11.460;2022-12-18T08:08:58;-3.50;99.90
36322;DHT22;23564;48.290;11.460;2022-12-18T08:11:26;-3.50;99.90
36322;DHT22;23564;48.290;11.460;2022-12-18T08:13:52;-3.50;99.90
36322;DHT22;23564;48.290;11.460;2022-12-18T08:16:19;-3.50;99.90
36322;DHT22;23564;48.290;11.460;2022-12-18T08:18:45;-3.40;99.90
36322;DHT22;23564;48.290;11.460;2022-12-18T08:21:19;-3.40;99.90
36322;DHT22;23564;48.290;11.460;2022-12-18T08:23:46;-3.40;99.90
36322;DHT22;23564;48.290;11.460;2022-12-18T08:26:12;-3.30;99.90
36322;DHT22;23564;48.290;11.460;2022-12-18T08:28:39;-3.30;99.90
36322;DHT22;23564;48.290;11.460;2022-12-18T08:31:05;-3.30;99.90
36322;DHT22;23564;48.290;11.460;2022-12-18T08:33:31;-3.30;99.90
36322;DHT22;23564;48.290;11.460;2022-12-18T08:35:58;-3.30;93.20
36322;DHT22;23564;48.290;11.460;2022-12-18T08:38:24;-3.30;36.00
36322;DHT22;23564;48.290;11.460;2022-12-18T08:40:49;-3.30;81.70
36322;DHT22;23564;48.290;11.460;2022-12-18T08:43:15;-3.40;99.90
36322;DHT22;23564;48.290;11.460;2022-12-18T08:45:59;-3.30;99.90
36322;DHT22;23564;48.290;11.460;2022-12-18T08:48:24;-3.20;99.90
36322;DHT22;23564;48.290;11.460;2022-12-18T08:50:55;-3.10;99.90
36322;DHT22;23564;48.290;11.460;2022-12-18T08:53:20;-3.00;99.90
36322;DHT22;23564;48.290;11.460;2022-12-18T08:55:46;-2.90;1.00
36322;DHT22;23564;48.290;11.460;2022-12-18T08:58:11;-3.00;1.00
36322;DHT22;23564;48.290;11.460;2022-12-18T09:00:37;-2.90;1.00
36322;DHT22;23564;48.290;11.460;2022-12-18T09:03:02;-2.90;1.00
36322;DHT22;23564;48.290;11.460;2022-12-18T09:05:28;-2.80;1.00
36322;DHT22;23564;48.290;11.460;2022-12-18T09:07:53;-2.80;1.00
36322;DHT22;23564;48.290;11.460;2022-12-18T09:10:19;-2.70;1.00
36322;DHT22;23564;48.290;11.460;2022-12-18T09:12:44;-2.60;1.00
36322;DHT22;23564;48.290;11.460;2022-12-18T09:15:10;-2.50;99.90
36322;DHT22;23564;48.290;11.460;2022-12-18T09:17:35;-2.60;93.90
36322;DHT22;23564;48.290;11.460;2022-12-18T09:20:01;-2.60;99.90
36322;DHT22;23564;48.290;11.460;2022-12-18T09:22:26;-2.60;99.90
36322;DHT22;23564;48.290;11.460;2022-12-18T09:24:52;-2.60;99.90
36322;DHT22;23564;48.290;11.460;2022-12-18T09:27:18;-2.60;99.90
36322;DHT22;23564;48.290;11.460;2022-12-18T09:29:43;-2.60;99.90
36322;DHT22;23564;48.290;11.460;2022-12-18T09:32:09;-2.60;99.90
36322;DHT22;23564;48.290;11.460;2022-12-18T09:34:34;-2.60;99.90
36322;DHT22;23564;48.290;11.460;2022-12-18T09:37:00;-2.60;99.90
36322;DHT22;23564;48.290;11.460;2022-12-18T09:39:25;-2.40;99.90
36322;DHT22;23564;48.290;11.460;2022-12-18T09:41:54;-2.50;99.90
36322;DHT22;23564;48.290;11.460;2022-12-18T09:44:22;-2.50;1.00
36322;DHT22;23564;48.290;11.460;2022-12-18T09:46:57;-2.30;51.00
36322;DHT22;23564;48.290;11.460;2022-12-18T09:49:27;-2.30;1.00
36322;DHT22;23564;48.290;11.460;2022-12-18T09:52:04;-2.20;1.00
36322;DHT22;23564;48.290;11.460;2022-12-18T09:54:39;-2.10;1.00
36322;DHT22;23564;48.290;11.460;2022-12-18T09:57:05;-2.00;99.90
36322;DHT22;23564;48.290;11.460;2022-12-18T09:59:37;-1.90;99.90
36322;DHT22;23564;48.290;11.460;2022-12-18T10:02:23;-1.70;1.00
36322;DHT22;23564;48.290;11.460;2022-12-18T10:05:05;-1.90;1.00
36322;DHT22;23564;48.290;11.460;2022-12-18T10:19:09;-2.00;1.00
36322;DHT22;23564;48.290;11.460;2022-12-18T10:26:38;-1.90;99.90
36322;DHT22;23564;48.290;11.460;2022-12-18T10:29:11;-1.90;1.00
36322;DHT22;23564;48.290;11.460;2022-12-18T10:31:37;-1.70;99.90
36322;DHT22;23564;48.290;11.460;2022-12-18T10:34:02;-1.70;99.90
36322;DHT22;23564;48.290;11.460;2022-12-18T10:36:28;-1.50;99.90
36322;DHT22;23564;48.290;11.460;2022-12-18T10:41:41;-1.50;99.90
36322;DHT22;23564;48.290;11.460;2022-12-18T10:44:24;-1.40;99.90
36322;DHT22;23564;48.290;11.460;2022-12-18T10:46:55;-1.60;99.90
36322;DHT22;23564;48.290;11.460;2022-12-18T10:49:33;-1.60;99.90
36322;DHT22;23564;48.290;11.460;2022-12-18T10:52:17;-1.60;1.00
36322;DHT22;23564;48.290;11.460;2022-12-18T10:54:55;-1.60;1.00
36322;DHT22;23564;48.290;11.460;2022-12-18T10:57:32;-1.50;1.00
36322;DHT22;23564;48.290;11.460;2022-12-18T10:59:59;-1.60;1.00
36322;DHT22;23564;48.290;11.460;2022-12-18T11:02:37;-1.60;72.80
36322;DHT22;23564;48.290;11.460;2022-12-18T11:05:22;-1.70;1.00
36322;DHT22;23564;48.290;11.460;2022-12-18T11:07:49;-1.70;99.90
36322;DHT22;23564;48.290;11.460;2022-12-18T11:10:17;-1.70;99.90
36322;DHT22;23564;48.290;11.460;2022-12-18T11:12:44;-1.60;88.00
36322;DHT22;23564;48.290;11.460;2022-12-18T11:15:26;-1.70;99.90
36322;DHT22;23564;48.290;11.460;2022-12-18T11:17:53;-1.70;99.90
36322;DHT22;23564;48.290;11.460;2022-12-18T11:20:29;-1.80;1.00
36322;DHT22;23564;48.290;11.460;2022-12-18T11:23:01;-1.70;60.50
36322;DHT22;23564;48.290;11.460;2022-12-18T11:25:28;-1.70;99.90
36322;DHT22;23564;48.290;11.460;2022-12-18T11:30:35;-1.70;99.90
36322;DHT22;23564;48.290;11.460;2022-12-18T11:33:13;-1.80;99.90
36322;DHT22;23564;48.290;11.460;2022-12-18T11:38:24;-1.90;99.90
36322;DHT22;23564;48.290;11.460;2022-12-18T11:41:14;-1.90;99.90
36322;DHT22;23564;48.290;11.460;2022-12-18T11:43:58;-1.80;38.60
36322;DHT22;23564;48.290;11.460;2022-12-18T11:46:32;-1.80;99.90
36322;DHT22;23564;48.290;11.460;2022-12-18T11:49:06;-1.70;1.00
36322;DHT22;23564;48.290;11.460;2022-12-18T11:51:43;-1.70;14.00
36322;DHT22;23564;48.290;11.460;2022-12-18T11:54:15;-1.70;1.00
36322;DHT22;23564;48.290;11.460;2022-12-18T11:56:55;-1.70;99.90
36322;DHT22;23564;48.290;11.460;2022-12-18T11:59:39;-1.70;99.90
36322;DHT22;23564;48.290;11.460;2022-12-18T12:08:01;-1.70;99.90
36322;DHT22;23564;48.290;11.460;2022-12-18T12:10:46;-1.70;99.90
36322;DHT22;23564;48.290;11.460;2022-12-18T12:13:18;-1.60;99.90
36322;DHT22;23564;48.290;11.460;2022-12-18T12:18:50;-1.60;1.00
36322;DHT22;23564;48.290;11.460;2022-12-18T12:21:33;-1.60;34.40
36322;DHT22;23564;48.290;11.460;2022-12-18T12:27:19;-1.70;1.00
36322;DHT22;23564;48.290;11.460;2022-12-18T12:32:36;-1.70;99.90
36322;DHT22;23564;48.290;11.460;2022-12-18T12:40:32;-1.60;99.90
36322;DHT22;23564;48.290;11.460;2022-12-18T12:43:10;-1.60;1.00
36322;DHT22;23564;48.290;11.460;2022-12-18T12:48:21;-1.60;99.90
36322;DHT22;23564;48.290;11.460;2022-12-18T12:50:50;-1.60;99.90
36322;DHT22;23564;48.290;11.460;2022-12-18T12:53:36;-1.40;71.50
36322;DHT22;23564;48.290;11.460;2022-12-18T12:56:03;-1.40;99.90
36322;DHT22;23564;48.290;11.460;2022-12-18T12:59:04;-1.40;1.00
36322;DHT22;23564;48.290;11.460;2022-12-18T13:01:52;-1.50;1.00
36322;DHT22;23564;48.290;11.460;2022-12-18T13:07:13;-1.50;99.90
36322;DHT22;23564;48.290;11.460;2022-12-18T13:13:00;-1.50;1.00
36322;DHT22;23564;48.290;11.460;2022-12-18T13:15:33;-1.50;99.90
36322;DHT22;23564;48.290;11.460;2022-12-18T13:23:19;-1.70;99.90
36322;DHT22;23564;48.290;11.460;2022-12-18T13:25:45;-1.70;99.90
36322;DHT22;23564;48.290;11.460;2022-12-18T13:30:50;-1.70;1.00
36322;DHT22;23564;48.290;11.460;2022-12-18T13:40:59;-1.70;99.90
36322;DHT22;23564;48.290;11.460;2022-12-18T13:43:39;-1.80;33.40
36322;DHT22;23564;48.290;11.460;2022-12-18T13:46:20;-1.90;1.00
36322;DHT22;23564;48.290;11.460;2022-12-18T13:49:13;-1.90;99.90
36322;DHT22;23564;48.290;11.460;2022-12-18T13:51:44;-1.90;1.00
36322;DHT22;23564;48.290;11.460;2022-12-18T13:54:35;-2.00;1.00
36322;DHT22;23564;48.290;11.460;2022-12-18T13:57:03;-2.00;99.90
36322;DHT22;23564;48.290;11.460;2022-12-18T13:59:40;-2.00;99.90
36322;DHT22;23564;48.290;11.460;2022-12-18T14:02:15;-2.10;1.00
36322;DHT22;23564;48.290;11.460;2022-12-18T14:04:45;-2.10;13.70
36322;DHT22;23564;48.290;11.460;2022-12-18T14:07:15;-2.20;1.00
36322;DHT22;23564;48.290;11.460;2022-12-18T14:09:44;-2.30;6.80
36322;DHT22;23564;48.290;11.460;2022-12-18T14:15:33;-2.40;99.90
36322;DHT22;23564;48.290;11.460;2022-12-18T14:18:22;-2.40;99.90
36322;DHT22;23564;48.290;11.460;2022-12-18T14:20:50;-2.50;99.90
36322;DHT22;23564;48.290;11.460;2022-12-18T14:23:34;-2.60;99.90
36322;DHT22;23564;48.290;11.460;2022-12-18T14:26:03;-2.60;1.00
36322;DHT22;23564;48.290;11.460;2022-12-18T14:28:29;-2.60;1.00
36322;DHT22;23564;48.290;11.460;2022-12-18T14:30:55;-2.70;1.00
36322;DHT22;23564;48.290;11.460;2022-12-18T14:33:24;-2.80;1.00
36322;DHT22;23564;48.290;11.460;2022-12-18T14:36:02;-2.80;5.20
36322;DHT22;23564;48.290;11.460;2022-12-18T14:41:04;-2.70;1.00
36322;DHT22;23564;48.290;11.460;2022-12-18T14:43:33;-2.80;1.00
36322;DHT22;23564;48.290;11.460;2022-12-18T14:45:59;-2.80;1.00
36322;DHT22;23564;48.290;11.460;2022-12-18T14:48:37;-2.80;1.00
36322;DHT22;23564;48.290;11.460;2022-12-18T14:53:43;-2.90;41.40
36322;DHT22;23564;48.290;11.460;2022-12-18T14:56:25;-3.00;99.90
36322;DHT22;23564;48.290;11.460;2022-12-18T14:59:02;-3.00;91.50
36322;DHT22;23564;48.290;11.460;2022-12-18T15:01:37;-3.00;99.90
36322;DHT22;23564;48.290;11.460;2022-12-18T15:04:04;-3.10;99.90
36322;DHT22;23564;48.290;11.460;2022-12-18T15:06:36;-3.10;99.90
36322;DHT22;23564;48.290;11.460;2022-12-18T15:09:24;-3.10;99.90
36322;DHT22;23564;48.290;11.460;2022-12-18T15:11:58;-3.10;99.90
36322;DHT22;23564;48.290;11.460;2022-12-18T15:14:40;-3.10;99.90
36322;DHT22;23564;48.290;11.460;2022-12-18T15:17:18;-3.10;99.90
36322;DHT22;23564;48.290;11.460;2022-12-18T15:19:45;-3.10;99.90
36322;DHT22;23564;48.290;11.460;2022-12-18T15:22:21;-3.10;99.90
36322;DHT22;23564;48.290;11.460;2022-12-18T15:24:49;-3.10;99.90
36322;DHT22;23564;48.290;11.460;2022-12-18T15:27:27;-3.20;99.90
36322;DHT22;23564;48.290;11.460;2022-12-18T15:30:20;-3.20;99.90
36322;DHT22;23564;48.290;11.460;2022-12-18T15:32:46;-3.20;99.90
36322;DHT22;23564;48.290;11.460;2022-12-18T15:35:21;-3.20;99.90
36322;DHT22;23564;48.290;11.460;2022-12-18T15:37:49;-3.20;99.90
36322;DHT22;23564;48.290;11.460;2022-12-18T15:40:17;-3.10;99.90
36322;DHT22;23564;48.290;11.460;2022-12-18T15:42:43;-3.20;99.90
36322;DHT22;23564;48.290;11.460;2022-12-18T15:45:27;-3.10;99.90
36322;DHT22;23564;48.290;11.460;2022-12-18T15:47:53;-3.10;99.90
36322;DHT22;23564;48.290;11.460;2022-12-18T15:50:18;-3.10;99.90
36322;DHT22;23564;48.290;11.460;2022-12-18T15:52:46;-3.10;99.90
36322;DHT22;23564;48.290;11.460;2022-12-18T15:55:17;-3.20;99.90
36322;DHT22;23564;48.290;11.460;2022-12-18T15:58:01;-3.30;99.90
36322;DHT22;23564;48.290;11.460;2022-12-18T16:00:27;-3.30;99.90
36322;DHT22;23564;48.290;11.460;2022-12-18T16:02:53;-3.30;99.90
36322;DHT22;23564;48.290;11.460;2022-12-18T16:05:24;-3.30;99.90
36322;DHT22;23564;48.290;11.460;2022-12-18T16:07:51;-3.30;99.90
36322;DHT22;23564;48.290;11.460;2022-12-18T16:10:16;-3.40;99.90
36322;DHT22;23564;48.290;11.460;2022-12-18T16:12:42;-3.40;99.90
36322;DHT22;23564;48.290;11.460;2022-12-18T16:15:10;-3.40;99.90
36322;DHT22;23564;48.290;11.460;2022-12-18T16:17:39;-3.50;99.90
36322;DHT22;23564;48.290;11.460;2022-12-18T16:20:05;-3.40;99.90
36322;DHT22;23564;48.290;11.460;2022-12-18T16:22:31;-3.40;99.90
36322;DHT22;23564;48.290;11.460;2022-12-18T16:24:57;-3.40;99.90
36322;DHT22;23564;48.290;11.460;2022-12-18T16:27:24;-3.40;99.90
36322;DHT22;23564;48.290;11.460;2022-12-18T16:29:50;-3.50;99.90
36322;DHT22;23564;48.290;11.460;2022-12-18T16:32:19;-3.40;99.90
36322;DHT22;23564;48.290;11.460;2022-12-18T16:34:45;-3.50;99.90
36322;DHT22;23564;48.290;11.460;2022-12-18T16:37:13;-3.50;99.90
36322;DHT22;23564;48.290;11.460;2022-12-18T16:39:40;-3.50;99.90
36322;DHT22;23564;48.290;11.460;2022-12-18T16:42:11;-3.50;99.90
36322;DHT22;23564;48.290;11.460;2022-12-18T16:44:39;-3.50;99.90
36322;DHT22;23564;48.290;11.460;2022-12-18T16:47:05;-3.50;99.90
36322;DHT22;23564;48.290;11.460;2022-12-18T16:49:31;-3.50;99.90
36322;DHT22;23564;48.290;11.460;2022-12-18T16:51:57;-3.40;99.90
36322;DHT22;23564;48.290;11.460;2022-12-18T16:54:23;-3.40;99.90
36322;DHT22;23564;48.290;11.460;2022-12-18T16:56:50;-3.50;99.90
36322;DHT22;23564;48.290;11.460;2022-12-18T16:59:16;-3.40;99.90
36322;DHT22;23564;48.290;11.460;2022-12-18T17:01:41;-3.40;99.90
36322;DHT22;23564;48.290;11.460;2022-12-18T17:04:07;-3.40;99.90
36322;DHT22;23564;48.290;11.460;2022-12-18T17:06:35;-3.50;99.90
36322;DHT22;23564;48.290;11.460;2022-12-18T17:09:05;-3.50;99.90